createdAt,value
2017-08-15T00:01:25.511Z,14.84
2017-08-15T00:03:53.325Z,14.82
2017-08-15T00:06:21.181Z,14.79
2017-08-15T00:08:49.023Z,14.78
2017-08-15T00:11:16.857Z,14.79
2017-08-15T00:13:44.706Z,14.82
2017-08-15T00:16:12.564Z,14.83
2017-08-15T00:18:40.370Z,14.83
2017-08-15T00:21:08.220Z,14.84
2017-08-15T00:23:36.067Z,14.85
2017-08-15T00:26:03.938Z,14.90
2017-08-15T00:28:31.735Z,15.00
2017-08-15T00:30:59.567Z,15.04
2017-08-15T00:33:27.434Z,15.11
2017-08-15T00:35:55.262Z,15.21
2017-08-15T00:38:23.127Z,15.33
2017-08-15T00:40:51.002Z,15.47
2017-08-15T00:43:18.915Z,15.58
2017-08-15T00:45:46.742Z,15.65
2017-08-15T00:48:14.637Z,15.65
2017-08-15T00:50:42.396Z,15.66
2017-08-15T00:53:10.267Z,15.72
2017-08-15T00:55:38.113Z,15.79
2017-08-15T00:58:05.984Z,15.83
2017-08-15T01:00:33.799Z,15.91
2017-08-15T01:03:01.644Z,15.95
2017-08-15T01:05:29.524Z,16.01
2017-08-15T01:07:57.380Z,16.05
2017-08-15T01:10:25.271Z,16.11
2017-08-15T01:12:53.092Z,16.13
2017-08-15T01:15:20.944Z,16.16
2017-08-15T01:17:48.768Z,16.22
2017-08-15T01:20:16.677Z,16.27
2017-08-15T01:22:44.515Z,16.32
2017-08-15T01:25:12.377Z,16.37
2017-08-15T01:27:40.241Z,16.40
2017-08-15T01:30:08.124Z,16.41
2017-08-15T01:32:35.944Z,16.39
2017-08-15T01:35:03.835Z,16.38
2017-08-15T01:37:49.308Z,16.42
2017-08-15T01:40:17.168Z,16.50
2017-08-15T01:42:44.977Z,16.54
2017-08-15T01:45:12.804Z,16.57
2017-08-15T01:47:40.660Z,16.57
2017-08-15T01:50:08.499Z,16.57
2017-08-15T01:52:36.404Z,16.58
2017-08-15T01:55:04.245Z,16.60
2017-08-15T01:57:32.116Z,16.60
2017-08-15T01:59:59.932Z,16.64
2017-08-15T02:02:27.804Z,16.66
2017-08-15T02:04:55.643Z,16.69
2017-08-15T02:07:23.533Z,16.68
2017-08-15T02:09:51.387Z,16.66
2017-08-15T02:12:19.255Z,16.65
2017-08-15T02:14:47.076Z,16.60
2017-08-15T02:17:14.895Z,16.57
2017-08-15T02:19:42.773Z,16.56
2017-08-15T02:22:10.584Z,16.54
2017-08-15T02:24:38.467Z,16.50
2017-08-15T02:27:06.296Z,16.47
2017-08-15T02:29:34.204Z,16.39
2017-08-15T02:32:02.009Z,16.29
2017-08-15T02:34:29.865Z,16.23
2017-08-15T02:36:57.701Z,16.20
2017-08-15T02:39:25.545Z,16.19
2017-08-15T02:41:53.371Z,16.13
2017-08-15T02:44:21.134Z,16.00
2017-08-15T02:46:48.942Z,15.90
2017-08-15T02:49:16.748Z,15.78
2017-08-15T02:51:44.620Z,15.70
2017-08-15T02:54:12.450Z,15.61
2017-08-15T02:56:40.316Z,15.48
2017-08-15T02:59:08.172Z,15.42
2017-08-15T03:01:36.036Z,15.36
2017-08-15T03:04:03.866Z,15.31
2017-08-15T03:06:31.723Z,15.28
2017-08-15T03:08:59.579Z,15.21
2017-08-15T03:11:27.469Z,15.22
2017-08-15T03:13:55.292Z,15.17
2017-08-15T03:16:23.179Z,15.17
2017-08-15T03:18:50.993Z,15.13
2017-08-15T03:21:18.796Z,15.20
2017-08-15T03:23:46.698Z,15.30
2017-08-15T03:26:14.536Z,15.39
2017-08-15T03:28:42.408Z,15.45
2017-08-15T03:31:10.245Z,15.52
2017-08-15T03:33:38.118Z,15.55
2017-08-15T03:36:05.937Z,15.58
2017-08-15T03:38:33.831Z,15.62
2017-08-15T03:41:01.636Z,15.61
2017-08-15T03:43:29.497Z,15.61
2017-08-15T03:45:57.336Z,15.60
2017-08-15T03:48:25.230Z,15.60
2017-08-15T03:50:53.080Z,15.59
2017-08-15T03:53:20.909Z,15.57
2017-08-15T03:55:48.786Z,15.56
2017-08-15T03:58:16.590Z,15.60
2017-08-15T04:00:44.471Z,15.65
2017-08-15T04:03:12.271Z,15.65
2017-08-15T04:05:40.137Z,15.65
2017-08-15T04:08:08.053Z,15.69
2017-08-15T04:10:35.954Z,15.77
2017-08-15T04:13:03.789Z,15.77
2017-08-15T04:15:31.641Z,15.76
2017-08-15T04:17:59.389Z,15.77
2017-08-15T04:20:27.283Z,15.81
2017-08-15T04:22:55.124Z,15.80
2017-08-15T04:25:23.218Z,15.79
2017-08-15T04:27:51.030Z,15.84
2017-08-15T04:30:18.837Z,15.89
2017-08-15T04:32:46.632Z,15.88
2017-08-15T04:35:14.473Z,15.91
2017-08-15T04:37:42.324Z,15.90
2017-08-15T04:40:10.140Z,15.94
2017-08-15T04:42:37.933Z,15.97
2017-08-15T04:45:05.683Z,16.00
2017-08-15T04:47:33.465Z,16.05
2017-08-15T04:50:01.210Z,16.09
2017-08-15T04:52:29.001Z,16.17
2017-08-15T04:54:56.707Z,16.26
2017-08-15T04:57:24.470Z,16.34
2017-08-15T04:59:52.210Z,16.41
2017-08-15T05:02:19.953Z,16.48
2017-08-15T05:04:47.714Z,16.59
2017-08-15T05:07:15.498Z,16.70
2017-08-15T05:09:43.243Z,16.83
2017-08-15T05:12:11.074Z,16.87
2017-08-15T05:14:38.863Z,16.90
2017-08-15T05:17:06.596Z,17.14
2017-08-15T05:19:34.388Z,17.47
2017-08-15T05:22:02.132Z,17.63
2017-08-15T05:24:29.936Z,17.79
2017-08-15T05:26:57.664Z,18.06
2017-08-15T05:29:25.377Z,18.21
2017-08-15T05:31:53.174Z,18.28
2017-08-15T05:34:20.871Z,18.14
2017-08-15T05:36:48.642Z,17.94
2017-08-15T05:39:16.381Z,17.97
2017-08-15T05:41:44.186Z,18.00
2017-08-15T05:44:12.053Z,18.08
2017-08-15T05:46:39.845Z,18.10
2017-08-15T05:49:07.665Z,18.12
2017-08-15T05:51:35.425Z,18.19
2017-08-15T05:54:03.153Z,18.41
2017-08-15T05:56:30.858Z,18.61
2017-08-15T05:58:58.666Z,18.80
2017-08-15T06:01:26.433Z,18.84
2017-08-15T06:03:54.239Z,18.93
2017-08-15T06:06:22.044Z,18.95
2017-08-15T06:08:49.813Z,18.94
2017-08-15T06:11:17.577Z,18.99
2017-08-15T06:13:45.644Z,19.01
2017-08-15T06:16:13.432Z,19.06
2017-08-15T06:18:41.224Z,19.04
2017-08-15T06:21:08.949Z,19.05
2017-08-15T06:23:36.700Z,19.12
2017-08-15T06:26:04.432Z,19.13
2017-08-15T06:28:32.225Z,19.16
2017-08-15T06:30:59.949Z,19.01
2017-08-15T06:33:27.681Z,19.01
2017-08-15T06:35:55.445Z,19.01
2017-08-15T06:38:23.209Z,19.01
2017-08-15T06:40:50.988Z,19.02
2017-08-15T06:43:18.731Z,19.12
2017-08-15T06:45:46.512Z,19.14
2017-08-15T06:48:14.238Z,19.13
2017-08-15T06:50:42.036Z,19.15
2017-08-15T06:53:09.780Z,19.16
2017-08-15T06:55:37.544Z,19.16
2017-08-15T06:58:05.321Z,19.16
2017-08-15T07:00:33.104Z,19.17
2017-08-15T07:03:00.843Z,19.21
2017-08-15T07:05:28.619Z,19.29
2017-08-15T07:07:57.454Z,19.41
2017-08-15T07:10:25.365Z,19.57
2017-08-15T07:12:53.196Z,19.66
2017-08-15T07:15:21.036Z,19.82
2017-08-15T07:17:48.930Z,19.89
2017-08-15T07:20:16.679Z,20.13
2017-08-15T07:22:44.591Z,20.16
2017-08-15T07:25:12.422Z,20.20
2017-08-15T07:27:40.193Z,20.16
2017-08-15T07:30:08.141Z,20.14
2017-08-15T07:32:36.036Z,20.15
2017-08-15T07:35:03.928Z,20.21
2017-08-15T07:37:31.813Z,20.19
2017-08-15T07:39:59.658Z,20.26
2017-08-15T07:42:27.549Z,20.25
2017-08-15T07:44:55.386Z,20.30
2017-08-15T07:47:23.531Z,20.36
2017-08-15T07:49:51.377Z,20.44
2017-08-15T07:52:19.309Z,20.45
2017-08-15T07:54:47.140Z,20.45
2017-08-15T07:57:14.994Z,20.49
2017-08-15T07:59:42.874Z,20.61
2017-08-15T08:02:10.729Z,20.93
2017-08-15T08:04:38.593Z,21.41
2017-08-15T08:07:06.457Z,21.85
2017-08-15T08:09:34.376Z,21.93
2017-08-15T08:12:02.280Z,22.00
2017-08-15T08:14:30.166Z,22.37
2017-08-15T08:16:57.990Z,22.43
2017-08-15T08:19:25.868Z,22.43
2017-08-15T08:21:53.729Z,22.34
2017-08-15T08:24:21.598Z,22.48
2017-08-15T08:26:49.424Z,22.72
2017-08-15T08:29:17.325Z,22.97
2017-08-15T08:31:45.175Z,23.05
2017-08-15T08:34:13.177Z,23.21
2017-08-15T08:36:41.063Z,23.41
2017-08-15T08:39:08.896Z,23.64
2017-08-15T08:41:36.772Z,23.81
2017-08-15T08:44:04.611Z,23.86
2017-08-15T08:46:32.479Z,24.10
2017-08-15T08:51:27.493Z,23.95
2017-08-15T08:53:55.303Z,23.92
2017-08-15T08:56:23.191Z,23.81
2017-08-15T08:58:50.919Z,23.76
2017-08-15T09:01:18.727Z,24.01
2017-08-15T09:04:36.042Z,24.25
2017-08-15T09:07:03.796Z,24.32
2017-08-15T09:09:31.574Z,24.34
2017-08-15T09:11:59.324Z,24.58
2017-08-15T09:14:27.101Z,24.60
2017-08-15T09:16:55.036Z,24.42
2017-08-15T09:19:22.909Z,24.47
2017-08-15T09:21:50.855Z,24.58
2017-08-15T09:24:18.625Z,24.88
2017-08-15T09:26:46.412Z,24.92
2017-08-15T09:29:14.207Z,24.83
2017-08-15T09:31:41.990Z,24.64
2017-08-15T09:34:10.875Z,24.79
2017-08-15T09:36:38.626Z,25.01
2017-08-15T09:39:06.907Z,25.17
2017-08-15T09:41:35.471Z,25.30
2017-08-15T09:44:03.397Z,25.19
2017-08-15T09:46:31.146Z,24.91
2017-08-15T09:48:58.917Z,25.15
2017-08-15T09:51:26.626Z,25.25
2017-08-15T09:53:54.397Z,25.25
2017-08-15T09:56:22.116Z,25.13
2017-08-15T09:58:55.355Z,25.24
2017-08-15T10:01:23.110Z,25.48
2017-08-15T10:03:50.848Z,25.29
2017-08-15T10:06:18.614Z,25.00
2017-08-15T10:08:46.368Z,25.02
2017-08-15T10:11:14.181Z,25.08
2017-08-15T10:13:42.040Z,24.98
2017-08-15T10:16:09.905Z,25.05
2017-08-15T10:18:37.754Z,25.31
2017-08-15T10:21:05.713Z,25.57
2017-08-15T10:23:33.557Z,25.71
2017-08-15T10:26:01.345Z,25.89
2017-08-15T10:28:29.178Z,26.06
2017-08-15T10:30:57.038Z,25.91
2017-08-15T10:33:24.780Z,25.70
2017-08-15T10:35:52.736Z,25.81
2017-08-15T10:38:20.588Z,25.99
2017-08-15T10:40:48.478Z,26.37
2017-08-15T10:43:16.366Z,26.35
2017-08-15T10:45:44.259Z,26.08
2017-08-15T10:48:12.094Z,26.43
2017-08-15T10:50:39.874Z,26.43
2017-08-15T10:53:07.708Z,26.59
2017-08-15T10:55:35.556Z,26.56
2017-08-15T10:58:03.464Z,26.64
2017-08-15T11:00:31.355Z,26.93
2017-08-15T11:02:59.267Z,26.97
2017-08-15T11:05:27.124Z,27.27
2017-08-15T11:07:54.972Z,27.01
2017-08-15T11:10:22.855Z,26.63
2017-08-15T11:12:50.737Z,26.57
2017-08-15T11:15:18.553Z,26.89
2017-08-15T11:17:46.477Z,26.91
2017-08-15T11:20:14.342Z,26.93
2017-08-15T11:22:42.186Z,27.25
2017-08-15T11:25:10.032Z,27.22
2017-08-15T11:27:37.892Z,27.35
2017-08-15T11:30:05.685Z,27.23
2017-08-15T11:32:33.506Z,26.83
2017-08-15T11:35:01.373Z,26.76
2017-08-15T11:37:29.206Z,26.91
2017-08-15T11:39:57.079Z,27.04
2017-08-15T11:42:24.907Z,27.10
2017-08-15T11:44:52.781Z,27.07
2017-08-15T11:47:20.652Z,27.08
2017-08-15T11:49:48.552Z,27.02
2017-08-15T11:52:16.378Z,27.11
2017-08-15T11:54:44.294Z,27.43
2017-08-15T11:57:12.115Z,27.76
2017-08-15T11:59:39.991Z,27.31
2017-08-15T12:02:07.832Z,27.29
2017-08-15T12:04:35.706Z,27.71
2017-08-15T12:07:03.632Z,27.83
2017-08-15T12:09:31.484Z,27.66
2017-08-15T12:11:59.352Z,27.42
2017-08-15T12:14:27.207Z,27.24
2017-08-15T12:16:55.061Z,27.30
2017-08-15T12:19:22.914Z,27.65
2017-08-15T12:21:50.826Z,27.49
2017-08-15T12:24:18.668Z,27.46
2017-08-15T12:26:46.576Z,27.53
2017-08-15T12:29:14.433Z,27.45
2017-08-15T12:31:42.309Z,27.14
2017-08-15T12:34:10.057Z,27.29
2017-08-15T12:36:37.856Z,27.79
2017-08-15T12:39:05.595Z,28.14
2017-08-15T12:41:33.309Z,28.15
2017-08-15T12:44:01.096Z,28.05
2017-08-15T12:46:28.837Z,27.86
2017-08-15T12:48:56.654Z,27.54
2017-08-15T12:51:24.375Z,27.59
2017-08-15T12:53:52.257Z,27.40
2017-08-15T12:56:20.089Z,27.54
2017-08-15T12:58:47.886Z,27.76
2017-08-15T13:01:15.744Z,28.11
2017-08-15T13:03:43.656Z,28.12
2017-08-15T13:06:11.488Z,27.99
2017-08-15T13:08:39.421Z,28.03
2017-08-15T13:11:07.286Z,27.83
2017-08-15T13:13:35.151Z,27.76
2017-08-15T13:16:02.981Z,27.77
2017-08-15T13:18:30.894Z,27.52
2017-08-15T13:20:58.774Z,27.56
2017-08-15T13:23:26.654Z,27.67
2017-08-15T13:25:54.589Z,27.68
2017-08-15T13:28:22.480Z,27.55
2017-08-15T13:30:50.369Z,27.41
2017-08-15T13:33:18.272Z,27.23
2017-08-15T13:35:46.228Z,27.22
2017-08-15T13:38:14.066Z,27.26
2017-08-15T13:40:41.971Z,27.42
2017-08-15T13:43:09.791Z,27.55
2017-08-15T13:45:37.673Z,27.53
2017-08-15T13:48:05.531Z,27.78
2017-08-15T13:50:33.348Z,28.03
2017-08-15T13:53:01.227Z,28.38
2017-08-15T13:55:29.106Z,28.54
2017-08-15T13:57:56.948Z,28.66
2017-08-15T14:00:24.865Z,28.42
2017-08-15T14:02:52.780Z,28.44
2017-08-15T14:05:20.708Z,28.69
2017-08-15T14:07:48.662Z,28.73
2017-08-15T14:10:17.018Z,28.69
2017-08-15T14:12:44.929Z,28.24
2017-08-15T14:15:12.864Z,28.10
2017-08-15T14:17:40.751Z,28.01
2017-08-15T14:20:08.580Z,27.89
2017-08-15T14:22:36.497Z,27.69
2017-08-15T14:25:04.330Z,27.59
2017-08-15T14:27:32.248Z,27.71
2017-08-15T14:30:00.144Z,27.66
2017-08-15T14:32:28.009Z,27.68
2017-08-15T14:34:55.788Z,27.60
2017-08-15T14:37:23.648Z,27.50
2017-08-15T14:39:51.513Z,27.27
2017-08-15T14:42:19.274Z,27.22
2017-08-15T14:44:47.125Z,27.19
2017-08-15T14:47:14.956Z,27.23
2017-08-15T14:49:42.775Z,27.44
2017-08-15T14:52:10.549Z,27.56
2017-08-15T14:54:38.367Z,27.68
2017-08-15T14:57:06.177Z,27.63
2017-08-15T14:59:34.007Z,27.55
2017-08-15T15:02:01.804Z,27.57
2017-08-15T15:04:29.629Z,27.53
2017-08-15T15:06:57.492Z,27.45
2017-08-15T15:09:25.462Z,27.42
2017-08-15T15:11:53.354Z,27.38
2017-08-15T15:14:21.197Z,27.25
2017-08-15T15:16:49.156Z,27.29
2017-08-15T15:19:17.083Z,27.28
2017-08-15T15:21:44.996Z,27.32
2017-08-15T15:24:12.882Z,27.28
2017-08-15T15:26:40.837Z,27.22
2017-08-15T15:29:08.728Z,27.29
2017-08-15T15:31:36.655Z,27.50
2017-08-15T15:34:04.554Z,27.54
2017-08-15T15:36:32.525Z,27.48
2017-08-15T15:39:00.367Z,27.38
2017-08-15T15:41:28.307Z,27.37
2017-08-15T15:43:56.131Z,27.24
2017-08-15T15:46:23.971Z,27.17
2017-08-15T15:48:51.904Z,27.26
2017-08-15T15:51:19.837Z,27.34
2017-08-15T15:53:47.745Z,27.37
2017-08-15T15:56:15.594Z,27.39
2017-08-15T15:58:43.502Z,27.29
2017-08-15T16:01:11.325Z,27.28
2017-08-15T16:03:39.184Z,27.37
2017-08-15T16:06:07.034Z,27.64
2017-08-15T16:08:35.485Z,27.81
2017-08-15T16:11:03.350Z,27.82
2017-08-15T16:13:31.162Z,27.75
2017-08-15T16:15:58.974Z,27.68
2017-08-15T16:18:26.858Z,27.75
2017-08-15T16:20:54.669Z,27.47
2017-08-15T16:23:22.526Z,27.38
2017-08-15T16:25:50.352Z,27.21
2017-08-15T16:28:18.193Z,27.03
2017-08-15T16:30:45.965Z,26.95
2017-08-15T16:33:13.702Z,26.98
2017-08-15T16:35:41.483Z,27.08
2017-08-15T16:38:09.256Z,27.20
2017-08-15T16:40:37.083Z,27.24
2017-08-15T16:43:04.861Z,27.22
2017-08-15T16:45:32.668Z,27.18
2017-08-15T16:48:00.441Z,27.15
2017-08-15T16:50:28.326Z,27.04
2017-08-15T16:52:56.075Z,27.00
2017-08-15T16:55:23.955Z,27.05
2017-08-15T16:57:51.697Z,26.92
2017-08-15T17:00:19.474Z,26.85
2017-08-15T17:02:47.264Z,26.71
2017-08-15T17:05:15.110Z,26.68
2017-08-15T17:07:42.855Z,26.66
2017-08-15T17:10:10.608Z,26.68
2017-08-15T17:12:38.410Z,26.71
2017-08-15T17:15:06.127Z,26.76
2017-08-15T17:17:33.896Z,26.68
2017-08-15T17:20:01.604Z,26.58
2017-08-15T17:22:29.397Z,26.38
2017-08-15T17:24:57.186Z,26.15
2017-08-15T17:27:24.972Z,26.01
2017-08-15T17:29:52.718Z,25.87
2017-08-15T17:32:20.504Z,25.71
2017-08-15T17:34:48.238Z,25.58
2017-08-15T17:37:16.049Z,25.43
2017-08-15T17:39:43.832Z,25.30
2017-08-15T17:42:11.626Z,25.17
2017-08-15T17:44:39.422Z,25.03
2017-08-15T17:47:07.136Z,24.90
2017-08-15T17:49:34.903Z,24.80
2017-08-15T17:52:03.045Z,24.63
2017-08-15T17:54:30.851Z,24.46
2017-08-15T17:56:58.585Z,24.30
2017-08-15T17:59:26.387Z,24.15
2017-08-15T18:01:54.107Z,24.02
2017-08-15T18:04:21.893Z,23.91
2017-08-15T18:06:49.615Z,23.80
2017-08-15T18:09:17.452Z,23.70
2017-08-15T18:11:45.243Z,23.61
2017-08-15T18:14:12.987Z,23.61
2017-08-15T18:16:40.765Z,23.63
2017-08-15T18:19:08.501Z,23.60
2017-08-15T18:21:36.309Z,23.53
2017-08-15T18:24:04.047Z,23.42
2017-08-15T18:26:31.815Z,23.42
2017-08-15T18:28:59.551Z,23.53
2017-08-15T18:31:27.342Z,23.61
2017-08-15T18:33:55.078Z,23.67
2017-08-15T18:36:22.834Z,23.71
2017-08-15T18:38:50.578Z,23.71
2017-08-15T18:41:18.330Z,23.68
2017-08-15T18:43:46.070Z,23.63
2017-08-15T18:46:13.807Z,23.60
2017-08-15T18:48:41.717Z,23.59
2017-08-15T18:51:09.440Z,23.50
2017-08-15T18:53:37.411Z,23.40
2017-08-15T18:56:05.462Z,23.34
2017-08-15T18:58:33.293Z,23.35
2017-08-15T19:01:01.017Z,23.45
2017-08-15T19:03:28.806Z,23.51
2017-08-15T19:05:56.593Z,23.55
2017-08-15T19:08:24.412Z,23.59
2017-08-15T19:10:52.276Z,23.61
2017-08-15T19:13:20.196Z,23.63
2017-08-15T19:15:48.023Z,23.66
2017-08-15T19:18:15.792Z,23.64
2017-08-15T19:20:43.531Z,23.63
2017-08-15T19:23:11.295Z,23.65
2017-08-15T19:25:39.077Z,23.63
2017-08-15T19:28:06.818Z,23.63
2017-08-15T19:30:34.597Z,23.36
2017-08-15T19:33:02.362Z,22.93
2017-08-15T19:35:30.139Z,22.66
2017-08-15T19:37:58.227Z,22.19
2017-08-15T19:40:26.049Z,21.85
2017-08-15T19:42:53.899Z,21.26
2017-08-15T19:45:21.754Z,20.84
2017-08-15T19:47:49.539Z,20.58
2017-08-15T19:50:17.360Z,20.32
2017-08-15T19:52:45.227Z,20.08
2017-08-15T19:55:13.063Z,19.87
2017-08-15T19:57:40.953Z,19.77
2017-08-15T20:00:08.720Z,19.68
2017-08-15T20:02:36.617Z,19.60
2017-08-15T20:05:04.378Z,19.43
2017-08-15T20:07:32.559Z,19.25
2017-08-15T20:10:00.355Z,19.15
2017-08-15T20:12:28.248Z,19.10
2017-08-15T20:14:55.984Z,19.06
2017-08-15T20:17:23.698Z,19.09
2017-08-15T20:19:51.645Z,19.14
2017-08-15T20:22:19.467Z,19.16
2017-08-15T20:24:47.286Z,19.17
2017-08-15T20:27:15.034Z,19.16
2017-08-15T20:29:42.810Z,19.17
2017-08-15T20:32:10.646Z,19.17
2017-08-15T20:34:38.506Z,19.18
2017-08-15T20:37:06.350Z,19.17
2017-08-15T20:39:34.212Z,19.18
2017-08-15T20:42:01.927Z,19.19
2017-08-15T20:44:29.690Z,19.22
2017-08-15T20:46:57.496Z,19.25
2017-08-15T20:49:25.293Z,19.28
2017-08-15T20:51:53.118Z,19.31
2017-08-15T20:54:20.942Z,19.27
2017-08-15T20:56:48.869Z,19.27
2017-08-15T20:59:16.715Z,19.27
2017-08-15T21:01:44.575Z,19.26
2017-08-15T21:04:12.435Z,19.25
2017-08-15T21:06:40.361Z,19.23
2017-08-15T21:09:08.106Z,19.19
2017-08-15T21:11:35.989Z,19.18
2017-08-15T21:14:03.821Z,19.16
2017-08-15T21:16:31.677Z,19.15
2017-08-15T21:18:59.511Z,19.14
2017-08-15T21:21:27.405Z,19.13
2017-08-15T21:23:55.234Z,19.11
2017-08-15T21:26:23.086Z,19.10
2017-08-15T21:28:50.921Z,19.10
2017-08-15T21:31:18.789Z,19.08
2017-08-15T21:33:46.598Z,19.05
2017-08-15T21:36:14.471Z,19.04
2017-08-15T21:38:42.290Z,19.02
2017-08-15T21:41:10.117Z,19.01
2017-08-15T21:43:37.957Z,19.01
2017-08-15T21:46:05.810Z,18.99
2017-08-15T21:48:33.609Z,18.97
2017-08-15T21:51:01.491Z,18.96
2017-08-15T21:53:29.289Z,18.95
2017-08-15T21:55:57.176Z,18.95
2017-08-15T21:58:25.029Z,18.95
2017-08-15T22:00:58.422Z,18.93
2017-08-15T22:03:26.289Z,18.91
2017-08-15T22:05:54.125Z,18.89
2017-08-15T22:08:21.971Z,18.87
2017-08-15T22:10:49.850Z,18.83
2017-08-15T22:13:17.719Z,18.81
2017-08-15T22:15:45.546Z,18.79
2017-08-15T22:18:13.408Z,18.80
2017-08-15T22:20:41.136Z,18.83
2017-08-15T22:23:09.023Z,18.85
2017-08-15T22:25:36.844Z,18.87
2017-08-15T22:28:04.719Z,18.88
2017-08-15T22:30:32.543Z,18.88
2017-08-15T22:33:00.406Z,18.88
2017-08-15T22:35:28.250Z,18.85
2017-08-15T22:37:56.113Z,18.83
2017-08-15T22:40:23.950Z,18.82
2017-08-15T22:42:51.773Z,18.80
2017-08-15T22:45:19.643Z,18.80
2017-08-15T22:47:47.478Z,18.83
2017-08-15T22:50:15.349Z,18.80
2017-08-15T22:52:43.203Z,18.80
2017-08-15T22:55:11.105Z,18.80
2017-08-15T22:57:38.984Z,18.79
2017-08-15T23:00:06.866Z,18.78
2017-08-15T23:02:34.699Z,18.77
2017-08-15T23:05:02.548Z,18.76
2017-08-15T23:07:30.409Z,18.75
2017-08-15T23:09:58.345Z,18.74
2017-08-15T23:12:26.165Z,18.74
2017-08-15T23:14:54.043Z,18.74
2017-08-15T23:17:21.897Z,18.73
2017-08-15T23:19:49.766Z,18.73
2017-08-15T23:22:17.616Z,18.72
2017-08-15T23:24:45.436Z,18.69
2017-08-15T23:27:13.303Z,18.65
2017-08-15T23:29:41.141Z,18.57
2017-08-15T23:32:09.002Z,18.52
2017-08-15T23:34:36.829Z,18.50
2017-08-15T23:37:04.713Z,18.46
2017-08-15T23:39:32.572Z,18.44
2017-08-15T23:42:00.456Z,18.43
2017-08-15T23:44:28.262Z,18.43
2017-08-15T23:46:56.157Z,18.41
2017-08-15T23:49:23.994Z,18.37
2017-08-15T23:51:51.877Z,18.36
2017-08-15T23:54:19.685Z,18.35
2017-08-15T23:56:47.547Z,18.34
2017-08-15T23:59:15.365Z,18.36
